createdAt,value
2018-12-01T00:00:31.564Z,28.93
2018-12-01T00:03:02.695Z,28.90
2018-12-01T00:05:39.677Z,28.43
2018-12-01T00:08:10.596Z,27.40
2018-12-01T00:10:42.165Z,27.90
2018-12-01T00:13:12.602Z,29.27
2018-12-01T00:15:42.917Z,27.23
2018-12-01T00:18:13.247Z,27.63
2018-12-01T00:20:44.201Z,27.80
2018-12-01T00:23:14.557Z,28.90
2018-12-01T00:25:44.868Z,27.63
2018-12-01T00:28:15.217Z,27.17
2018-12-01T00:30:45.493Z,29.27
2018-12-01T00:33:15.731Z,29.03
2018-12-01T00:35:46.132Z,29.33
2018-12-01T00:38:16.919Z,31.10
2018-12-01T00:40:47.272Z,33.37
2018-12-01T00:43:17.787Z,31.83
2018-12-01T00:45:48.616Z,27.93
2018-12-01T00:48:20.218Z,26.10
2018-12-01T00:50:52.313Z,28.27
2018-12-01T00:53:23.173Z,27.60
2018-12-01T00:55:53.960Z,29.80
2018-12-01T00:58:24.205Z,27.57
2018-12-01T01:00:54.506Z,29.57
2018-12-01T01:03:24.704Z,29.80
2018-12-01T01:05:54.960Z,29.40
2018-12-01T01:08:25.482Z,29.33
2018-12-01T01:10:56.654Z,27.10
2018-12-01T01:13:29.065Z,25.83
2018-12-01T01:15:59.812Z,24.97
2018-12-01T01:18:30.626Z,23.30
2018-12-01T01:21:01.686Z,24.27
2018-12-01T01:23:32.638Z,24.20
2018-12-01T01:26:02.853Z,23.20
2018-12-01T01:28:33.144Z,24.97
2018-12-01T01:31:03.476Z,28.80
2018-12-01T01:33:37.466Z,26.97
2018-12-01T01:36:08.619Z,29.33
2018-12-01T01:38:38.847Z,37.73
2018-12-01T01:41:09.286Z,40.17
2018-12-01T01:43:41.429Z,37.13
2018-12-01T01:46:12.738Z,36.47
2018-12-01T01:48:43.489Z,34.20
2018-12-01T01:51:14.946Z,31.63
2018-12-01T01:53:46.016Z,29.67
2018-12-01T01:56:17.285Z,25.37
2018-12-01T01:58:48.766Z,25.67
2018-12-01T02:01:19.783Z,23.03
2018-12-01T02:03:50.172Z,26.77
2018-12-01T02:06:20.472Z,25.63
2018-12-01T02:08:50.812Z,27.07
2018-12-01T02:11:21.197Z,27.13
2018-12-01T02:13:51.468Z,26.70
2018-12-01T02:16:21.701Z,28.47
2018-12-01T02:18:52.638Z,28.87
2018-12-01T02:21:24.306Z,30.37
2018-12-01T02:23:54.688Z,29.03
2018-12-01T02:26:26.961Z,27.47
2018-12-01T02:28:57.444Z,26.60
2018-12-01T02:31:28.828Z,28.90
2018-12-01T02:33:59.922Z,35.37
2018-12-01T02:36:30.265Z,37.07
2018-12-01T02:39:01.365Z,40.73
2018-12-01T02:41:34.752Z,43.27
2018-12-01T02:44:16.525Z,40.53
2018-12-01T02:46:57.615Z,38.00
2018-12-01T02:49:27.856Z,38.77
2018-12-01T02:51:58.161Z,39.00
2018-12-01T02:54:29.713Z,45.67
2018-12-01T02:57:00.112Z,45.17
2018-12-01T02:59:30.616Z,45.63
2018-12-01T03:02:00.994Z,47.80
2018-12-01T03:04:31.915Z,50.00
2018-12-01T03:07:02.901Z,51.67
2018-12-01T03:09:33.956Z,49.57
2018-12-01T03:12:05.510Z,48.50
2018-12-01T03:14:35.872Z,50.67
2018-12-01T03:17:06.940Z,50.00
2018-12-01T03:19:37.282Z,50.40
2018-12-01T03:22:09.053Z,49.17
2018-12-01T03:24:39.389Z,48.83
2018-12-01T03:27:10.255Z,48.00
2018-12-01T03:29:42.773Z,50.80
2018-12-01T03:32:13.706Z,51.00
2018-12-01T03:34:45.436Z,53.73
2018-12-01T03:37:15.714Z,51.90
2018-12-01T03:39:46.485Z,50.10
2018-12-01T03:42:16.901Z,48.67
2018-12-01T03:44:48.134Z,49.03
2018-12-01T03:47:20.433Z,50.27
2018-12-01T03:49:50.710Z,50.07
2018-12-01T03:52:20.989Z,47.40
2018-12-01T03:54:55.567Z,48.13
2018-12-01T03:57:26.602Z,49.83
2018-12-01T03:59:56.862Z,48.47
2018-12-01T04:02:27.042Z,50.53
2018-12-01T04:04:58.750Z,48.83
2018-12-01T04:07:28.970Z,49.20
2018-12-01T04:10:00.670Z,48.23
2018-12-01T04:12:30.927Z,48.10
2018-12-01T04:15:01.462Z,47.47
2018-12-01T04:17:32.921Z,51.37
2018-12-01T04:20:03.155Z,47.70
2018-12-01T04:22:34.053Z,51.40
2018-12-01T04:25:05.032Z,51.20
2018-12-01T04:27:36.024Z,52.17
2018-12-01T04:30:12.043Z,51.73
2018-12-01T04:32:43.325Z,60.93
2018-12-01T04:35:23.593Z,60.93
2018-12-01T04:37:54.929Z,51.33
2018-12-01T04:40:27.041Z,64.70
2018-12-01T04:42:58.287Z,51.97
2018-12-01T04:45:29.284Z,59.57
2018-12-01T04:48:00.866Z,51.40
2018-12-01T04:50:31.545Z,48.93
2018-12-01T04:53:02.955Z,52.53
2018-12-01T04:55:34.246Z,51.97
2018-12-01T04:58:05.480Z,51.93
2018-12-01T05:00:35.741Z,52.40
2018-12-01T05:03:07.081Z,51.50
2018-12-01T05:05:39.407Z,77.83
2018-12-01T05:08:13.782Z,54.80
2018-12-01T05:10:45.506Z,51.80
2018-12-01T05:13:15.700Z,51.40
2018-12-01T05:15:46.666Z,50.90
2018-12-01T05:18:16.867Z,50.83
2018-12-01T05:20:47.172Z,51.13
2018-12-01T05:23:17.878Z,53.80
2018-12-01T05:25:48.228Z,51.70
2018-12-01T05:28:19.875Z,51.53
2018-12-01T05:30:51.398Z,52.77
2018-12-01T05:33:21.738Z,53.60
2018-12-01T05:35:53.502Z,52.13
2018-12-01T05:38:24.743Z,51.97
2018-12-01T05:40:55.069Z,50.77
2018-12-01T05:43:25.503Z,52.37
2018-12-01T05:45:55.800Z,48.53
2018-12-01T05:48:26.172Z,52.73
2018-12-01T05:50:56.550Z,53.23
2018-12-01T05:53:27.222Z,52.67
2018-12-01T05:55:58.740Z,98.87
2018-12-01T05:58:32.362Z,103.57
2018-12-01T06:01:02.629Z,75.17
2018-12-01T06:03:34.104Z,74.97
2018-12-01T06:06:04.919Z,80.33
2018-12-01T06:08:37.198Z,135.33
2018-12-01T06:11:08.470Z,133.67
2018-12-01T06:13:38.852Z,162.10
2018-12-01T06:16:09.073Z,175.43
2018-12-01T06:18:39.718Z,157.17
2018-12-01T06:21:09.996Z,115.37
2018-12-01T06:23:41.166Z,100.27
2018-12-01T06:26:11.536Z,93.37
2018-12-01T06:28:42.942Z,74.87
2018-12-01T06:31:13.197Z,69.83
2018-12-01T06:33:45.628Z,61.77
2018-12-01T06:36:15.915Z,61.00
2018-12-01T06:38:46.767Z,55.33
2018-12-01T06:41:17.008Z,53.50
2018-12-01T06:43:47.349Z,49.40
2018-12-01T06:46:18.592Z,44.70
2018-12-01T06:48:50.080Z,45.00
2018-12-01T06:51:21.091Z,38.67
2018-12-01T06:53:52.474Z,41.23
2018-12-01T06:56:23.814Z,41.83
2018-12-01T06:58:58.499Z,39.83
2018-12-01T07:01:30.631Z,38.53
2018-12-01T07:04:02.492Z,41.77
2018-12-01T07:06:32.998Z,37.73
2018-12-01T07:09:04.179Z,40.10
2018-12-01T07:11:35.554Z,38.83
2018-12-01T07:14:07.258Z,38.47
2018-12-01T07:16:38.703Z,43.13
2018-12-01T07:19:18.742Z,40.27
2018-12-01T07:21:52.003Z,44.13
2018-12-01T07:24:22.341Z,45.83
2018-12-01T07:26:53.752Z,46.47
2018-12-01T07:29:25.757Z,45.53
2018-12-01T07:31:57.678Z,41.57
2018-12-01T07:34:28.074Z,41.37
2018-12-01T07:37:00.157Z,42.00
2018-12-01T07:39:35.113Z,41.87
2018-12-01T07:42:08.953Z,43.00
2018-12-01T07:44:40.048Z,47.10
2018-12-01T07:47:14.695Z,47.33
2018-12-01T07:49:52.395Z,51.43
2018-12-01T07:52:29.890Z,56.20
2018-12-01T07:55:05.116Z,55.60
2018-12-01T07:57:36.079Z,67.90
2018-12-01T08:00:10.637Z,86.30
2018-12-01T08:02:44.149Z,71.27
2018-12-01T08:05:14.506Z,68.50
2018-12-01T08:07:46.052Z,77.50
2018-12-01T08:10:16.928Z,73.70
2018-12-01T08:12:47.075Z,75.03
2018-12-01T08:15:18.178Z,84.13
2018-12-01T08:17:49.722Z,76.03
2018-12-01T08:20:22.124Z,73.50
2018-12-01T08:22:53.445Z,72.43
2018-12-01T08:25:25.834Z,72.80
2018-12-01T08:27:58.569Z,75.90
2018-12-01T08:30:32.556Z,74.30
2018-12-01T08:33:05.204Z,72.57
2018-12-01T08:35:35.522Z,71.53
2018-12-01T08:38:09.477Z,86.43
2018-12-01T08:40:41.086Z,69.10
2018-12-01T08:43:20.992Z,74.80
2018-12-01T08:45:53.190Z,65.97
2018-12-01T08:48:25.125Z,60.60
2018-12-01T08:50:58.655Z,57.97
2018-12-01T08:53:29.637Z,57.53
2018-12-01T08:56:01.008Z,55.77
2018-12-01T08:58:31.834Z,58.13
2018-12-01T09:01:03.538Z,57.47
2018-12-01T09:03:35.286Z,59.80
2018-12-01T09:06:06.522Z,58.13
2018-12-01T09:08:36.933Z,61.60
2018-12-01T09:11:08.295Z,57.90
2018-12-01T09:13:39.330Z,60.63
2018-12-01T09:16:13.582Z,60.80
2018-12-01T09:18:43.950Z,59.70
2018-12-01T09:21:14.158Z,61.47
2018-12-01T09:23:45.200Z,62.80
2018-12-01T09:26:16.919Z,62.90
2018-12-01T09:28:48.073Z,62.33
2018-12-01T09:31:20.474Z,63.07
2018-12-01T09:33:53.684Z,63.63
2018-12-01T09:36:24.399Z,66.37
2018-12-01T09:38:55.732Z,68.70
2018-12-01T09:41:27.073Z,67.73
2018-12-01T09:43:57.954Z,79.25
2018-12-01T09:46:32.827Z,72.63
2018-12-01T09:49:03.609Z,71.77
2018-12-01T09:51:34.854Z,71.70
2018-12-01T09:54:06.257Z,70.53
2018-12-01T09:56:37.562Z,70.83
2018-12-01T09:59:10.565Z,61.10
2018-12-01T10:01:41.818Z,68.07
2018-12-01T10:04:12.093Z,66.60
2018-12-01T10:06:44.158Z,63.10
2018-12-01T10:09:14.564Z,65.07
2018-12-01T10:11:50.370Z,65.03
2018-12-01T10:14:15.917Z,63.63
2018-12-01T10:16:46.350Z,65.73
2018-12-01T10:19:23.664Z,67.80
2018-12-01T10:21:53.948Z,70.40
2018-12-01T10:24:24.224Z,52.83
2018-12-01T10:26:57.417Z,57.07
2018-12-01T10:29:34.004Z,56.33
2018-12-01T10:32:03.851Z,57.63
2018-12-01T10:34:34.889Z,46.47
2018-12-01T10:37:05.197Z,33.27
2018-12-01T10:39:36.270Z,30.67
2018-12-01T10:42:08.914Z,34.27
2018-12-01T10:44:42.380Z,39.30
2018-12-01T10:47:13.832Z,38.97
2018-12-01T10:49:44.887Z,36.70
2018-12-01T10:52:17.130Z,33.67
2018-12-01T10:54:48.696Z,37.57
2018-12-01T10:57:22.222Z,34.77
2018-12-01T10:59:52.587Z,35.60
2018-12-01T11:02:28.117Z,36.57
2018-12-01T11:05:01.095Z,43.70
2018-12-01T11:07:32.136Z,46.33
2018-12-01T11:10:03.093Z,42.40
2018-12-01T11:12:35.140Z,37.63
2018-12-01T11:15:08.565Z,40.10
2018-12-01T11:17:39.607Z,47.43
2018-12-01T11:20:14.087Z,56.20
2018-12-01T11:22:51.244Z,56.77
2018-12-01T11:25:22.605Z,57.07
2018-12-01T11:27:54.934Z,55.27
2018-12-01T11:30:25.308Z,56.43
2018-12-01T11:32:55.708Z,56.17
2018-12-01T11:35:27.974Z,57.30
2018-12-01T11:37:58.415Z,62.17
2018-12-01T11:40:31.045Z,61.20
2018-12-01T11:43:02.472Z,62.80
2018-12-01T11:45:33.825Z,64.47
2018-12-01T11:48:04.234Z,59.90
2018-12-01T11:50:35.337Z,58.70
2018-12-01T11:53:06.746Z,57.43
2018-12-01T11:55:38.546Z,53.23
2018-12-01T11:58:09.976Z,50.03
2018-12-01T12:00:43.522Z,50.00
2018-12-01T12:03:18.326Z,49.90
2018-12-01T12:05:49.747Z,45.50
2018-12-01T12:08:38.266Z,45.07
2018-12-01T12:11:21.748Z,43.47
2018-12-01T12:13:53.820Z,39.73
2018-12-01T12:16:25.046Z,36.17
2018-12-01T12:18:55.439Z,37.83
2018-12-01T12:21:26.397Z,28.97
2018-12-01T12:23:58.667Z,30.43
2018-12-01T12:26:33.805Z,29.97
2018-12-01T12:29:06.257Z,27.20
2018-12-01T12:31:39.818Z,26.93
2018-12-01T12:34:15.585Z,25.20
2018-12-01T12:36:47.440Z,26.17
2018-12-01T12:39:17.685Z,26.13
2018-12-01T12:41:47.707Z,26.80
2018-12-01T12:44:17.777Z,28.23
2018-12-01T12:46:48.111Z,28.97
2018-12-01T12:49:18.431Z,28.13
2018-12-01T12:51:48.705Z,36.10
2018-12-01T12:54:19.025Z,37.73
2018-12-01T12:56:49.314Z,38.83
2018-12-01T12:59:19.717Z,40.50
2018-12-01T13:01:50.021Z,39.87
2018-12-01T13:04:20.275Z,39.17
2018-12-01T13:06:50.656Z,39.23
2018-12-01T13:09:21.178Z,38.87
2018-12-01T13:11:51.535Z,41.97
2018-12-01T13:14:22.033Z,40.67
2018-12-01T13:16:52.385Z,39.70
2018-12-01T13:19:22.558Z,39.97
2018-12-01T13:21:52.999Z,40.20
2018-12-01T13:24:23.161Z,38.43
2018-12-01T13:26:53.564Z,42.97
2018-12-01T13:29:23.888Z,45.73
2018-12-01T13:31:54.603Z,42.90
2018-12-01T13:34:24.566Z,128.30
2018-12-01T13:36:54.918Z,39.43
2018-12-01T13:39:25.278Z,37.37
2018-12-01T13:41:55.580Z,34.80
2018-12-01T13:44:26.062Z,42.03
2018-12-01T13:46:56.365Z,45.70
2018-12-01T13:49:26.699Z,47.57
2018-12-01T13:51:56.974Z,47.60
2018-12-01T13:54:27.385Z,48.00
2018-12-01T13:56:57.671Z,48.73
2018-12-01T13:59:28.074Z,47.27
2018-12-01T14:01:58.669Z,45.23
2018-12-01T14:04:29.057Z,45.83
2018-12-01T14:06:59.188Z,43.80
2018-12-01T14:09:29.490Z,43.37
2018-12-01T14:11:59.824Z,45.63
2018-12-01T14:14:30.027Z,45.43
2018-12-01T14:17:00.228Z,49.30
2018-12-01T14:19:30.541Z,51.97
2018-12-01T14:22:00.629Z,55.20
2018-12-01T14:24:31.000Z,59.03
2018-12-01T14:27:01.436Z,64.47
2018-12-01T14:36:43.737Z,104.87
2018-12-01T14:39:14.243Z,123.77
2018-12-01T14:41:44.572Z,116.07
2018-12-01T14:44:14.702Z,116.80
2018-12-01T14:46:44.999Z,113.80
2018-12-01T14:49:15.329Z,117.07
2018-12-01T14:51:45.720Z,114.77
2018-12-01T14:54:16.074Z,120.27
2018-12-01T14:56:46.399Z,124.67
2018-12-01T14:59:16.721Z,113.27
2018-12-01T15:01:47.224Z,83.20
2018-12-01T15:04:17.473Z,80.60
2018-12-01T15:06:47.814Z,82.93
2018-12-01T15:09:18.038Z,90.13
2018-12-01T15:11:48.466Z,83.13
2018-12-01T15:14:19.057Z,79.77
2018-12-01T15:16:51.319Z,78.90
2018-12-01T15:19:21.968Z,83.63
2018-12-01T15:21:52.936Z,73.60
2018-12-01T15:24:24.482Z,78.67
2018-12-01T15:26:55.699Z,81.13
2018-12-01T15:29:26.028Z,70.67
2018-12-01T15:31:56.594Z,76.77
2018-12-01T15:34:27.357Z,76.10
2018-12-01T15:36:58.091Z,79.43
2018-12-01T15:39:29.591Z,76.43
2018-12-01T15:42:01.351Z,62.40
2018-12-01T15:44:31.746Z,63.07
2018-12-01T15:47:02.342Z,54.70
2018-12-01T15:49:32.783Z,52.03
2018-12-01T15:52:04.027Z,55.13
2018-12-01T15:54:34.530Z,57.17
2018-12-01T15:57:06.120Z,58.67
2018-12-01T15:59:36.979Z,97.53
2018-12-01T16:02:09.698Z,63.90
2018-12-01T16:04:40.601Z,68.77
2018-12-01T16:07:11.840Z,64.47
2018-12-01T16:09:43.351Z,67.80
2018-12-01T16:12:13.873Z,72.30
2018-12-01T16:14:45.068Z,76.73
2018-12-01T16:17:16.424Z,70.47
2018-12-01T16:19:47.082Z,70.20
2018-12-01T16:22:18.249Z,75.53
2018-12-01T16:24:48.966Z,83.03
2018-12-01T16:27:19.455Z,125.93
2018-12-01T16:29:50.211Z,128.37
2018-12-01T16:32:21.861Z,131.53
2018-12-01T16:34:53.120Z,137.87
2018-12-01T16:37:23.653Z,130.93
2018-12-01T16:39:54.423Z,119.40
2018-12-01T16:42:25.053Z,125.20
2018-12-01T16:44:55.540Z,123.03
2018-12-01T16:47:26.213Z,127.53
2018-12-01T16:49:56.791Z,115.67
2018-12-01T16:52:27.337Z,180.03
2018-12-01T16:54:57.999Z,137.80
2018-12-01T16:57:28.501Z,131.77
2018-12-01T16:59:58.981Z,136.77
2018-12-01T17:02:29.985Z,121.77
2018-12-01T17:05:01.428Z,130.03
2018-12-01T17:07:32.562Z,128.43
2018-12-01T17:10:02.783Z,130.73
2018-12-01T17:12:33.468Z,109.60
2018-12-01T17:15:04.190Z,97.77
2018-12-01T17:17:34.733Z,93.93
2018-12-01T17:20:07.133Z,85.87
2018-12-01T17:22:37.773Z,83.60
2018-12-01T17:25:11.066Z,83.37
2018-12-01T17:27:41.489Z,82.53
2018-12-01T17:30:28.859Z,80.20
2018-12-01T17:33:00.384Z,80.27
2018-12-01T17:35:31.830Z,79.60
2018-12-01T17:38:03.488Z,77.20
2018-12-01T17:40:43.936Z,74.97
2018-12-01T17:43:17.650Z,76.83
2018-12-01T17:45:48.878Z,81.13
2018-12-01T17:48:19.372Z,88.10
2018-12-01T17:50:51.017Z,84.87
2018-12-01T17:53:21.597Z,87.20
2018-12-01T17:55:52.770Z,74.33
2018-12-01T17:58:23.303Z,77.53
2018-12-01T18:00:53.965Z,78.93
2018-12-01T18:03:24.979Z,78.00
2018-12-01T18:05:55.477Z,81.93
2018-12-01T18:08:25.978Z,82.20
2018-12-01T18:10:56.858Z,83.67
2018-12-01T18:13:27.750Z,81.17
2018-12-01T18:15:58.972Z,87.73
2018-12-01T18:18:29.595Z,85.83
2018-12-01T18:21:00.339Z,88.00
2018-12-01T18:23:31.393Z,93.37
2018-12-01T18:26:01.865Z,92.30
2018-12-01T18:28:37.631Z,80.97
2018-12-01T18:31:12.746Z,74.47
2018-12-01T18:33:44.596Z,78.23
2018-12-01T18:36:15.539Z,69.50
2018-12-01T18:38:47.885Z,71.43
2018-12-01T18:41:18.500Z,73.97
2018-12-01T18:43:48.988Z,69.57
2018-12-01T18:46:20.058Z,70.60
2018-12-01T18:48:50.461Z,66.23
2018-12-01T18:51:20.977Z,68.67
2018-12-01T18:53:51.485Z,67.73
2018-12-01T18:56:22.090Z,69.10
2018-12-01T18:58:53.154Z,69.00
2018-12-01T19:01:23.645Z,68.13
2018-12-01T19:03:54.232Z,69.30
2018-12-01T19:06:24.589Z,117.57
2018-12-01T19:08:55.074Z,140.23
2018-12-01T19:11:26.768Z,130.77
2018-12-01T19:13:57.126Z,129.07
2018-12-01T19:16:27.647Z,131.30
2018-12-01T19:18:58.065Z,112.43
2018-12-01T19:21:28.409Z,107.63
2018-12-01T19:23:58.700Z,112.40
2018-12-01T19:26:29.080Z,107.03
2018-12-01T19:28:59.925Z,99.80
2018-12-01T19:31:30.251Z,94.20
2018-12-01T19:34:00.525Z,87.60
2018-12-01T19:36:30.724Z,83.70
2018-12-01T19:39:01.067Z,82.17
2018-12-01T19:41:31.423Z,85.43
2018-12-01T19:44:02.718Z,128.17
2018-12-01T19:46:33.137Z,128.30
2018-12-01T19:49:03.453Z,113.60
2018-12-01T19:51:33.904Z,118.77
2018-12-01T19:54:04.240Z,111.30
2018-12-01T19:56:34.523Z,95.03
2018-12-01T19:59:04.895Z,97.27
2018-12-01T20:01:35.455Z,90.97
2018-12-01T20:04:05.733Z,83.23
2018-12-01T20:06:36.168Z,87.33
2018-12-01T20:09:08.190Z,89.17
2018-12-01T20:11:38.561Z,88.60
2018-12-01T20:14:11.409Z,92.00
2018-12-01T20:16:43.852Z,92.17
2018-12-01T20:19:14.300Z,120.17
2018-12-01T20:21:44.693Z,94.60
2018-12-01T20:24:15.024Z,90.93
2018-12-01T20:26:45.284Z,89.03
2018-12-01T20:29:15.673Z,85.50
2018-12-01T20:31:46.095Z,81.43
2018-12-01T20:34:16.445Z,76.30
2018-12-01T20:43:39.538Z,70.97
2018-12-01T20:46:09.989Z,73.00
2018-12-01T20:48:40.363Z,72.83
2018-12-01T20:51:10.678Z,73.17
2018-12-01T20:53:41.081Z,71.53
2018-12-01T20:56:14.136Z,75.27
2018-12-01T20:58:44.389Z,73.90
2018-12-01T21:01:14.619Z,74.07
2018-12-01T21:03:45.439Z,73.63
2018-12-01T21:06:15.884Z,72.17
2018-12-01T21:08:46.222Z,75.57
2018-12-01T21:11:17.164Z,72.63
2018-12-01T21:13:47.479Z,72.10
2018-12-01T21:16:18.007Z,68.10
2018-12-01T21:18:48.493Z,63.70
2018-12-01T21:21:18.886Z,69.50
2018-12-01T21:23:49.117Z,68.13
2018-12-01T21:26:19.561Z,68.80
2018-12-01T21:28:50.021Z,69.90
2018-12-01T21:31:20.416Z,72.20
2018-12-01T21:33:50.776Z,72.10
2018-12-01T21:36:20.991Z,101.70
2018-12-01T21:38:51.193Z,113.57
2018-12-01T21:41:21.570Z,112.67
2018-12-01T21:43:51.823Z,115.10
2018-12-01T21:46:22.195Z,106.70
2018-12-01T21:48:52.482Z,126.73
2018-12-01T21:51:23.870Z,127.90
2018-12-01T21:53:54.152Z,130.37
2018-12-01T21:56:24.453Z,138.60
2018-12-01T21:58:54.686Z,151.33
2018-12-01T22:01:25.134Z,143.00
2018-12-01T22:03:55.505Z,122.03
2018-12-01T22:06:25.849Z,115.27
2018-12-01T22:08:56.490Z,112.77
2018-12-01T22:11:26.572Z,113.50
2018-12-01T22:13:57.076Z,109.50
2018-12-01T22:16:27.505Z,115.20
2018-12-01T22:18:57.721Z,120.17
2018-12-01T22:21:28.287Z,110.43
2018-12-01T22:23:58.489Z,122.30
2018-12-01T22:26:28.684Z,126.27
2018-12-01T22:28:59.118Z,135.53
2018-12-01T22:31:29.296Z,159.50
2018-12-01T22:33:59.592Z,130.13
2018-12-01T22:36:29.891Z,113.57
2018-12-01T22:39:00.309Z,115.23
2018-12-01T22:41:30.417Z,115.03
2018-12-01T22:44:00.833Z,113.53
2018-12-01T22:46:31.145Z,114.50
2018-12-01T22:49:01.487Z,114.60
2018-12-01T22:51:31.830Z,123.63
2018-12-01T22:54:02.818Z,122.77
2018-12-01T22:56:33.185Z,123.53
2018-12-01T22:59:03.612Z,119.87
2018-12-01T23:01:33.946Z,111.37
2018-12-01T23:04:04.395Z,109.23
2018-12-01T23:06:34.729Z,106.17
2018-12-01T23:09:05.933Z,108.73
2018-12-01T23:11:36.253Z,104.47
2018-12-01T23:14:06.662Z,101.73
2018-12-01T23:16:37.024Z,104.77
2018-12-01T23:19:07.735Z,111.23
2018-12-01T23:21:38.111Z,101.70
2018-12-01T23:24:08.515Z,100.77
2018-12-01T23:26:38.703Z,103.57
2018-12-01T23:29:09.100Z,100.80
2018-12-01T23:31:39.495Z,100.73
2018-12-01T23:34:09.935Z,101.07
2018-12-01T23:36:40.211Z,97.27
2018-12-01T23:39:10.606Z,99.13
2018-12-01T23:41:40.926Z,103.00
2018-12-01T23:44:14.261Z,96.17
2018-12-01T23:46:44.601Z,96.00
2018-12-01T23:49:14.994Z,96.33
2018-12-01T23:51:45.346Z,93.87
2018-12-01T23:54:15.640Z,94.40
2018-12-01T23:56:45.732Z,91.30
2018-12-01T23:59:15.985Z,89.10
